sensor_id;sensor_type;location;lat;lon;timestamp;temperature;humidity
52731;DHT22;38624;53.242;6.974;2023-02-20T00:00:20;5.40;99.90
52731;DHT22;38624;53.242;6.974;2023-02-20T00:02:47;5.40;99.90
52731;DHT22;38624;53.242;6.974;2023-02-20T00:05:13;5.60;99.90
52731;DHT22;38624;53.242;6.974;2023-02-20T00:07:39;5.50;99.90
52731;DHT22;38624;53.242;6.974;2023-02-20T00:10:05;6.00;99.90
52731;DHT22;38624;53.242;6.974;2023-02-20T00:12:31;5.40;99.90
52731;DHT22;38624;53.242;6.974;2023-02-20T00:14:57;5.50;99.90
52731;DHT22;38624;53.242;6.974;2023-02-20T00:17:23;5.50;99.90
52731;DHT22;38624;53.242;6.974;2023-02-20T00:19:49;5.70;99.90
52731;DHT22;38624;53.242;6.974;2023-02-20T00:22:14;5.60;99.90
52731;DHT22;38624;53.242;6.974;2023-02-20T00:24:41;5.60;99.90
52731;DHT22;38624;53.242;6.974;2023-02-20T00:27:06;5.70;99.90
52731;DHT22;38624;53.242;6.974;2023-02-20T00:29:32;5.70;99.90
52731;DHT22;38624;53.242;6.974;2023-02-20T00:31:58;5.70;99.90
52731;DHT22;38624;53.242;6.974;2023-02-20T00:34:26;5.70;99.90
52731;DHT22;38624;53.242;6.974;2023-02-20T00:36:52;5.90;99.90
52731;DHT22;38624;53.242;6.974;2023-02-20T00:39:18;5.70;99.90
52731;DHT22;38624;53.242;6.974;2023-02-20T00:41:44;5.80;99.90
52731;DHT22;38624;53.242;6.974;2023-02-20T00:44:10;6.20;99.90
52731;DHT22;38624;53.242;6.974;2023-02-20T00:46:36;5.90;99.90
52731;DHT22;38624;53.242;6.974;2023-02-20T00:49:02;6.20;99.90
52731;DHT22;38624;53.242;6.974;2023-02-20T00:51:28;5.90;99.90
52731;DHT22;38624;53.242;6.974;2023-02-20T00:53:54;5.80;99.90
52731;DHT22;38624;53.242;6.974;2023-02-20T00:56:19;6.30;99.90
52731;DHT22;38624;53.242;6.974;2023-02-20T00:58:45;5.80;99.90
52731;DHT22;38624;53.242;6.974;2023-02-20T01:01:11;5.90;99.90
52731;DHT22;38624;53.242;6.974;2023-02-20T01:03:36;5.80;99.90
52731;DHT22;38624;53.242;6.974;2023-02-20T01:06:02;5.80;99.90
52731;DHT22;38624;53.242;6.974;2023-02-20T01:08:28;5.80;99.90
52731;DHT22;38624;53.242;6.974;2023-02-20T01:10:53;5.80;99.90
52731;DHT22;38624;53.242;6.974;2023-02-20T01:13:19;5.80;99.90
52731;DHT22;38624;53.242;6.974;2023-02-20T01:15:45;5.90;99.90
52731;DHT22;38624;53.242;6.974;2023-02-20T01:18:10;5.80;99.90
52731;DHT22;38624;53.242;6.974;2023-02-20T01:20:36;6.10;99.90
52731;DHT22;38624;53.242;6.974;2023-02-20T01:23:02;5.90;99.90
52731;DHT22;38624;53.242;6.974;2023-02-20T01:25:28;5.80;99.90
52731;DHT22;38624;53.242;6.974;2023-02-20T01:27:54;5.80;99.90
52731;DHT22;38624;53.242;6.974;2023-02-20T01:30:19;6.20;99.90
52731;DHT22;38624;53.242;6.974;2023-02-20T01:32:45;5.90;99.90
52731;DHT22;38624;53.242;6.974;2023-02-20T01:35:11;6.00;99.90
52731;DHT22;38624;53.242;6.974;2023-02-20T01:37:36;5.60;99.90
52731;DHT22;38624;53.242;6.974;2023-02-20T01:40:03;5.90;99.90
52731;DHT22;38624;53.242;6.974;2023-02-20T01:42:31;6.00;99.90
52731;DHT22;38624;53.242;6.974;2023-02-20T01:47:53;6.00;99.90
52731;DHT22;38624;53.242;6.974;2023-02-20T01:50:43;6.10;99.90
52731;DHT22;38624;53.242;6.974;2023-02-20T01:53:12;6.10;99.90
52731;DHT22;38624;53.242;6.974;2023-02-20T01:55:51;6.10;99.90
52731;DHT22;38624;53.242;6.974;2023-02-20T01:58:23;6.10;99.90
52731;DHT22;38624;53.242;6.974;2023-02-20T02:00:49;6.20;99.90
52731;DHT22;38624;53.242;6.974;2023-02-20T02:03:20;6.20;99.90
52731;DHT22;38624;53.242;6.974;2023-02-20T02:05:52;6.40;99.90
52731;DHT22;38624;53.242;6.974;2023-02-20T02:08:20;6.20;99.90
52731;DHT22;38624;53.242;6.974;2023-02-20T02:11:14;6.50;99.90
52731;DHT22;38624;53.242;6.974;2023-02-20T02:13:42;6.30;99.90
52731;DHT22;38624;53.242;6.974;2023-02-20T02:16:35;6.20;99.90
52731;DHT22;38624;53.242;6.974;2023-02-20T02:30:59;6.40;99.90
52731;DHT22;38624;53.242;6.974;2023-02-20T02:39:40;6.30;99.90
52731;DHT22;38624;53.242;6.974;2023-02-20T02:42:17;6.30;99.90
52731;DHT22;38624;53.242;6.974;2023-02-20T02:47:50;6.30;99.90
52731;DHT22;38624;53.242;6.974;2023-02-20T02:50:30;6.30;99.90
52731;DHT22;38624;53.242;6.974;2023-02-20T02:52:56;6.30;99.90
52731;DHT22;38624;53.242;6.974;2023-02-20T02:55:27;6.30;99.90
52731;DHT22;38624;53.242;6.974;2023-02-20T02:57:53;6.30;99.90
52731;DHT22;38624;53.242;6.974;2023-02-20T03:05:22;6.40;99.90
52731;DHT22;38624;53.242;6.974;2023-02-20T03:07:52;6.60;99.90
52731;DHT22;38624;53.242;6.974;2023-02-20T03:10:22;6.40;99.90
52731;DHT22;38624;53.242;6.974;2023-02-20T03:13:01;6.40;99.90
52731;DHT22;38624;53.242;6.974;2023-02-20T03:15:36;6.30;99.90
52731;DHT22;38624;53.242;6.974;2023-02-20T03:18:37;6.10;99.90
52731;DHT22;38624;53.242;6.974;2023-02-20T03:21:10;6.50;99.90
52731;DHT22;38624;53.242;6.974;2023-02-20T03:23:45;6.30;99.90
52731;DHT22;38624;53.242;6.974;2023-02-20T03:26:19;6.30;99.90
52731;DHT22;38624;53.242;6.974;2023-02-20T03:28:58;6.30;99.90
52731;DHT22;38624;53.242;6.974;2023-02-20T03:37:10;6.30;99.90
52731;DHT22;38624;53.242;6.974;2023-02-20T03:40:02;6.40;99.90
52731;DHT22;38624;53.242;6.974;2023-02-20T03:42:53;6.30;99.90
52731;DHT22;38624;53.242;6.974;2023-02-20T03:45:41;6.30;99.90
52731;DHT22;38624;53.242;6.974;2023-02-20T03:48:13;6.30;99.90
52731;DHT22;38624;53.242;6.974;2023-02-20T03:50:40;6.30;99.90
52731;DHT22;38624;53.242;6.974;2023-02-20T03:53:06;6.30;99.90
52731;DHT22;38624;53.242;6.974;2023-02-20T03:55:32;6.30;99.90
52731;DHT22;38624;53.242;6.974;2023-02-20T03:58:00;6.30;99.90
52731;DHT22;38624;53.242;6.974;2023-02-20T04:00:31;6.20;99.90
52731;DHT22;38624;53.242;6.974;2023-02-20T04:03:01;6.50;99.90
52731;DHT22;38624;53.242;6.974;2023-02-20T04:05:34;6.40;99.90
52731;DHT22;38624;53.242;6.974;2023-02-20T04:08:17;6.40;99.90
52731;DHT22;38624;53.242;6.974;2023-02-20T04:11:02;6.40;99.90
52731;DHT22;38624;53.242;6.974;2023-02-20T04:13:31;6.40;99.90
52731;DHT22;38624;53.242;6.974;2023-02-20T04:15:59;6.40;99.90
52731;DHT22;38624;53.242;6.974;2023-02-20T04:18:26;6.40;99.90
52731;DHT22;38624;53.242;6.974;2023-02-20T04:20:55;6.40;99.90
52731;DHT22;38624;53.242;6.974;2023-02-20T04:23:23;6.40;99.90
52731;DHT22;38624;53.242;6.974;2023-02-20T04:25:54;6.80;99.90
52731;DHT22;38624;53.242;6.974;2023-02-20T04:28:22;6.50;99.90
52731;DHT22;38624;53.242;6.974;2023-02-20T04:30:48;6.50;99.90
52731;DHT22;38624;53.242;6.974;2023-02-20T04:33:15;6.50;99.90
52731;DHT22;38624;53.242;6.974;2023-02-20T04:35:40;6.60;99.90
52731;DHT22;38624;53.242;6.974;2023-02-20T04:38:06;6.50;99.90
52731;DHT22;38624;53.242;6.974;2023-02-20T04:40:32;6.50;99.90
52731;DHT22;38624;53.242;6.974;2023-02-20T04:42:58;6.80;99.90
52731;DHT22;38624;53.242;6.974;2023-02-20T04:45:24;6.60;99.90
52731;DHT22;38624;53.242;6.974;2023-02-20T04:47:50;6.60;99.90
52731;DHT22;38624;53.242;6.974;2023-02-20T04:52:48;6.60;99.90
52731;DHT22;38624;53.242;6.974;2023-02-20T04:55:14;6.70;99.90
52731;DHT22;38624;53.242;6.974;2023-02-20T04:57:41;6.70;99.90
52731;DHT22;38624;53.242;6.974;2023-02-20T05:00:07;6.70;99.90
52731;DHT22;38624;53.242;6.974;2023-02-20T05:02:33;6.80;99.90
52731;DHT22;38624;53.242;6.974;2023-02-20T05:04:59;6.80;99.90
52731;DHT22;38624;53.242;6.974;2023-02-20T05:07:25;6.90;99.90
52731;DHT22;38624;53.242;6.974;2023-02-20T05:09:50;6.80;99.90
52731;DHT22;38624;53.242;6.974;2023-02-20T05:12:16;6.90;99.90
52731;DHT22;38624;53.242;6.974;2023-02-20T05:14:42;6.90;99.90
52731;DHT22;38624;53.242;6.974;2023-02-20T05:17:07;7.00;99.90
52731;DHT22;38624;53.242;6.974;2023-02-20T05:19:33;6.90;99.90
52731;DHT22;38624;53.242;6.974;2023-02-20T05:21:59;6.80;99.90
52731;DHT22;38624;53.242;6.974;2023-02-20T05:24:44;6.90;99.90
52731;DHT22;38624;53.242;6.974;2023-02-20T05:27:10;7.00;99.90
52731;DHT22;38624;53.242;6.974;2023-02-20T05:29:36;6.90;99.90
52731;DHT22;38624;53.242;6.974;2023-02-20T05:32:01;7.00;99.90
52731;DHT22;38624;53.242;6.974;2023-02-20T05:34:27;7.00;99.90
52731;DHT22;38624;53.242;6.974;2023-02-20T05:36:53;7.10;99.90
52731;DHT22;38624;53.242;6.974;2023-02-20T05:39:21;7.10;99.90
52731;DHT22;38624;53.242;6.974;2023-02-20T05:41:47;7.00;99.90
52731;DHT22;38624;53.242;6.974;2023-02-20T05:44:13;7.10;99.90
52731;DHT22;38624;53.242;6.974;2023-02-20T05:46:42;7.00;99.90
52731;DHT22;38624;53.242;6.974;2023-02-20T05:49:09;7.10;99.90
52731;DHT22;38624;53.242;6.974;2023-02-20T05:51:35;7.10;99.90
52731;DHT22;38624;53.242;6.974;2023-02-20T05:54:00;7.00;99.90
52731;DHT22;38624;53.242;6.974;2023-02-20T05:56:26;7.00;99.90
52731;DHT22;38624;53.242;6.974;2023-02-20T05:58:54;7.20;99.90
52731;DHT22;38624;53.242;6.974;2023-02-20T06:01:22;7.20;99.90
52731;DHT22;38624;53.242;6.974;2023-02-20T06:03:49;7.20;99.90
52731;DHT22;38624;53.242;6.974;2023-02-20T06:06:15;7.20;99.90
52731;DHT22;38624;53.242;6.974;2023-02-20T06:08:41;7.20;99.90
52731;DHT22;38624;53.242;6.974;2023-02-20T06:11:09;7.20;99.90
52731;DHT22;38624;53.242;6.974;2023-02-20T06:13:35;7.20;99.90
52731;DHT22;38624;53.242;6.974;2023-02-20T06:16:01;7.20;99.90
52731;DHT22;38624;53.242;6.974;2023-02-20T06:18:27;7.20;99.90
52731;DHT22;38624;53.242;6.974;2023-02-20T06:20:52;7.20;99.90
52731;DHT22;38624;53.242;6.974;2023-02-20T06:23:18;7.30;99.90
52731;DHT22;38624;53.242;6.974;2023-02-20T06:25:44;7.30;99.90
52731;DHT22;38624;53.242;6.974;2023-02-20T06:28:10;7.30;99.90
52731;DHT22;38624;53.242;6.974;2023-02-20T06:30:35;7.40;99.90
52731;DHT22;38624;53.242;6.974;2023-02-20T06:33:01;7.40;99.90
52731;DHT22;38624;53.242;6.974;2023-02-20T06:35:27;7.40;99.90
52731;DHT22;38624;53.242;6.974;2023-02-20T06:37:52;7.40;99.90
52731;DHT22;38624;53.242;6.974;2023-02-20T06:40:18;7.50;99.90
52731;DHT22;38624;53.242;6.974;2023-02-20T06:42:44;7.50;99.90
52731;DHT22;38624;53.242;6.974;2023-02-20T06:45:09;7.50;99.90
52731;DHT22;38624;53.242;6.974;2023-02-20T06:47:35;7.60;99.90
52731;DHT22;38624;53.242;6.974;2023-02-20T06:50:02;7.60;99.90
52731;DHT22;38624;53.242;6.974;2023-02-20T06:52:28;7.60;99.90
52731;DHT22;38624;53.242;6.974;2023-02-20T06:54:53;7.60;99.90
52731;DHT22;38624;53.242;6.974;2023-02-20T06:57:19;7.80;99.90
52731;DHT22;38624;53.242;6.974;2023-02-20T06:59:46;7.60;99.90
52731;DHT22;38624;53.242;6.974;2023-02-20T07:02:14;7.60;99.90
52731;DHT22;38624;53.242;6.974;2023-02-20T07:04:40;7.60;99.90
52731;DHT22;38624;53.242;6.974;2023-02-20T07:07:06;7.70;99.90
52731;DHT22;38624;53.242;6.974;2023-02-20T07:09:32;7.70;99.90
52731;DHT22;38624;53.242;6.974;2023-02-20T07:11:58;7.60;99.90
52731;DHT22;38624;53.242;6.974;2023-02-20T07:14:24;7.60;99.90
52731;DHT22;38624;53.242;6.974;2023-02-20T07:16:49;7.60;99.90
52731;DHT22;38624;53.242;6.974;2023-02-20T07:19:15;7.60;99.90
52731;DHT22;38624;53.242;6.974;2023-02-20T07:21:41;7.70;99.90
52731;DHT22;38624;53.242;6.974;2023-02-20T07:24:07;8.10;99.90
52731;DHT22;38624;53.242;6.974;2023-02-20T07:26:33;7.70;99.90
52731;DHT22;38624;53.242;6.974;2023-02-20T07:29:01;7.70;99.90
52731;DHT22;38624;53.242;6.974;2023-02-20T07:31:27;7.70;99.90
52731;DHT22;38624;53.242;6.974;2023-02-20T07:33:52;7.70;99.90
52731;DHT22;38624;53.242;6.974;2023-02-20T07:36:18;7.70;99.90
52731;DHT22;38624;53.242;6.974;2023-02-20T07:38:53;7.70;99.90
52731;DHT22;38624;53.242;6.974;2023-02-20T07:41:19;7.70;99.90
52731;DHT22;38624;53.242;6.974;2023-02-20T07:43:44;7.70;99.90
52731;DHT22;38624;53.242;6.974;2023-02-20T07:46:10;7.70;99.90
52731;DHT22;38624;53.242;6.974;2023-02-20T07:48:36;7.70;99.90
52731;DHT22;38624;53.242;6.974;2023-02-20T07:51:01;7.70;99.90
52731;DHT22;38624;53.242;6.974;2023-02-20T07:53:27;7.70;99.90
52731;DHT22;38624;53.242;6.974;2023-02-20T07:55:53;7.70;99.90
52731;DHT22;38624;53.242;6.974;2023-02-20T07:58:18;7.80;99.90
52731;DHT22;38624;53.242;6.974;2023-02-20T08:00:44;7.90;99.90
52731;DHT22;38624;53.242;6.974;2023-02-20T08:03:10;7.90;99.90
52731;DHT22;38624;53.242;6.974;2023-02-20T08:05:36;7.90;99.90
52731;DHT22;38624;53.242;6.974;2023-02-20T08:08:01;7.90;99.90
52731;DHT22;38624;53.242;6.974;2023-02-20T08:10:27;7.90;99.90
52731;DHT22;38624;53.242;6.974;2023-02-20T08:12:54;7.90;99.90
52731;DHT22;38624;53.242;6.974;2023-02-20T08:15:21;7.90;99.90
52731;DHT22;38624;53.242;6.974;2023-02-20T08:17:47;8.00;99.90
52731;DHT22;38624;53.242;6.974;2023-02-20T08:20:19;8.00;99.90
52731;DHT22;38624;53.242;6.974;2023-02-20T08:22:47;7.90;99.90
52731;DHT22;38624;53.242;6.974;2023-02-20T08:25:14;8.00;99.90
52731;DHT22;38624;53.242;6.974;2023-02-20T08:27:40;8.00;99.90
52731;DHT22;38624;53.242;6.974;2023-02-20T08:30:07;8.10;99.90
52731;DHT22;38624;53.242;6.974;2023-02-20T08:32:34;8.20;99.90
52731;DHT22;38624;53.242;6.974;2023-02-20T08:35:00;8.40;99.90
52731;DHT22;38624;53.242;6.974;2023-02-20T08:37:25;8.20;99.90
52731;DHT22;38624;53.242;6.974;2023-02-20T08:39:51;8.30;99.90
52731;DHT22;38624;53.242;6.974;2023-02-20T08:42:17;8.40;99.90
52731;DHT22;38624;53.242;6.974;2023-02-20T08:44:42;8.50;99.90
52731;DHT22;38624;53.242;6.974;2023-02-20T08:47:08;8.30;99.90
52731;DHT22;38624;53.242;6.974;2023-02-20T08:49:34;8.30;99.90
52731;DHT22;38624;53.242;6.974;2023-02-20T08:52:00;8.40;99.90
52731;DHT22;38624;53.242;6.974;2023-02-20T08:54:28;8.40;99.90
52731;DHT22;38624;53.242;6.974;2023-02-20T08:56:53;8.40;99.90
52731;DHT22;38624;53.242;6.974;2023-02-20T08:59:19;8.40;99.90
52731;DHT22;38624;53.242;6.974;2023-02-20T09:01:44;8.30;99.90
52731;DHT22;38624;53.242;6.974;2023-02-20T09:04:10;8.40;99.90
52731;DHT22;38624;53.242;6.974;2023-02-20T09:06:36;8.30;99.90
52731;DHT22;38624;53.242;6.974;2023-02-20T09:09:02;8.30;99.90
52731;DHT22;38624;53.242;6.974;2023-02-20T09:11:28;8.40;99.90
52731;DHT22;38624;53.242;6.974;2023-02-20T09:13:54;8.40;99.90
52731;DHT22;38624;53.242;6.974;2023-02-20T09:16:21;8.40;99.90
52731;DHT22;38624;53.242;6.974;2023-02-20T09:18:48;8.40;99.90
52731;DHT22;38624;53.242;6.974;2023-02-20T09:21:17;8.50;99.90
52731;DHT22;38624;53.242;6.974;2023-02-20T09:23:43;8.50;99.90
52731;DHT22;38624;53.242;6.974;2023-02-20T09:26:09;8.50;99.90
52731;DHT22;38624;53.242;6.974;2023-02-20T09:28:35;8.50;99.90
52731;DHT22;38624;53.242;6.974;2023-02-20T09:31:02;8.50;99.90
52731;DHT22;38624;53.242;6.974;2023-02-20T09:33:28;8.50;99.90
52731;DHT22;38624;53.242;6.974;2023-02-20T09:35:54;8.50;99.90
52731;DHT22;38624;53.242;6.974;2023-02-20T09:38:23;8.50;99.90
52731;DHT22;38624;53.242;6.974;2023-02-20T09:40:57;8.50;99.90
52731;DHT22;38624;53.242;6.974;2023-02-20T09:46:21;8.60;99.90
52731;DHT22;38624;53.242;6.974;2023-02-20T09:51:33;8.70;99.90
52731;DHT22;38624;53.242;6.974;2023-02-20T09:54:30;8.60;99.90
52731;DHT22;38624;53.242;6.974;2023-02-20T09:56:59;8.60;99.90
52731;DHT22;38624;53.242;6.974;2023-02-20T09:59:33;8.70;99.90
52731;DHT22;38624;53.242;6.974;2023-02-20T10:02:19;8.60;99.90
52731;DHT22;38624;53.242;6.974;2023-02-20T10:04:52;8.70;99.90
52731;DHT22;38624;53.242;6.974;2023-02-20T10:07:32;8.70;99.90
52731;DHT22;38624;53.242;6.974;2023-02-20T10:09:59;8.70;99.90
52731;DHT22;38624;53.242;6.974;2023-02-20T10:12:29;8.70;99.90
52731;DHT22;38624;53.242;6.974;2023-02-20T10:23:02;9.10;99.90
52731;DHT22;38624;53.242;6.974;2023-02-20T10:25:34;8.70;99.90
52731;DHT22;38624;53.242;6.974;2023-02-20T10:28:12;8.80;99.90
52731;DHT22;38624;53.242;6.974;2023-02-20T10:30:49;8.90;99.90
52731;DHT22;38624;53.242;6.974;2023-02-20T10:33:32;8.90;99.90
52731;DHT22;38624;53.242;6.974;2023-02-20T10:38:44;8.90;99.90
52731;DHT22;38624;53.242;6.974;2023-02-20T10:41:46;9.00;99.90
52731;DHT22;38624;53.242;6.974;2023-02-20T10:52:35;9.10;99.90
52731;DHT22;38624;53.242;6.974;2023-02-20T10:55:30;9.00;99.90
52731;DHT22;38624;53.242;6.974;2023-02-20T10:58:25;9.10;99.90
52731;DHT22;38624;53.242;6.974;2023-02-20T11:00:58;9.10;99.90
52731;DHT22;38624;53.242;6.974;2023-02-20T11:03:40;9.30;99.90
52731;DHT22;38624;53.242;6.974;2023-02-20T11:06:12;9.20;99.90
52731;DHT22;38624;53.242;6.974;2023-02-20T11:08:38;9.30;99.90
52731;DHT22;38624;53.242;6.974;2023-02-20T11:13:48;9.40;99.90
52731;DHT22;38624;53.242;6.974;2023-02-20T11:16:25;9.40;99.90
52731;DHT22;38624;53.242;6.974;2023-02-20T11:19:05;9.70;99.90
52731;DHT22;38624;53.242;6.974;2023-02-20T11:21:45;9.50;99.90
52731;DHT22;38624;53.242;6.974;2023-02-20T11:26:46;9.50;99.90
52731;DHT22;38624;53.242;6.974;2023-02-20T11:29:14;9.50;99.90
52731;DHT22;38624;53.242;6.974;2023-02-20T11:31:42;9.60;99.90
52731;DHT22;38624;53.242;6.974;2023-02-20T11:34:16;9.70;99.90
52731;DHT22;38624;53.242;6.974;2023-02-20T11:36:53;9.80;99.90
52731;DHT22;38624;53.242;6.974;2023-02-20T11:39:23;9.70;99.90
52731;DHT22;38624;53.242;6.974;2023-02-20T11:42:03;9.60;99.90
52731;DHT22;38624;53.242;6.974;2023-02-20T11:44:30;9.70;99.90
52731;DHT22;38624;53.242;6.974;2023-02-20T11:47:18;9.70;99.90
52731;DHT22;38624;53.242;6.974;2023-02-20T11:49:46;9.70;99.90
52731;DHT22;38624;53.242;6.974;2023-02-20T11:52:20;9.70;99.90
52731;DHT22;38624;53.242;6.974;2023-02-20T11:54:49;9.60;99.90
52731;DHT22;38624;53.242;6.974;2023-02-20T11:57:33;9.60;99.90
52731;DHT22;38624;53.242;6.974;2023-02-20T12:00:15;9.60;99.90
52731;DHT22;38624;53.242;6.974;2023-02-20T12:03:12;9.60;99.90
52731;DHT22;38624;53.242;6.974;2023-02-20T12:05:46;9.60;99.90
52731;DHT22;38624;53.242;6.974;2023-02-20T12:11:08;9.70;99.90
52731;DHT22;38624;53.242;6.974;2023-02-20T12:13:40;9.70;99.90
52731;DHT22;38624;53.242;6.974;2023-02-20T12:19:11;9.70;99.90
52731;DHT22;38624;53.242;6.974;2023-02-20T12:21:57;9.70;99.90
52731;DHT22;38624;53.242;6.974;2023-02-20T12:35:30;10.00;99.90
52731;DHT22;38624;53.242;6.974;2023-02-20T12:51:42;10.00;99.90
52731;DHT22;38624;53.242;6.974;2023-02-20T12:59:57;10.00;99.90
52731;DHT22;38624;53.242;6.974;2023-02-20T13:02:30;10.00;99.90
52731;DHT22;38624;53.242;6.974;2023-02-20T13:04:59;10.10;99.90
52731;DHT22;38624;53.242;6.974;2023-02-20T13:07:50;10.10;99.90
52731;DHT22;38624;53.242;6.974;2023-02-20T13:10:22;10.20;99.90
52731;DHT22;38624;53.242;6.974;2023-02-20T13:12:49;10.20;99.90
52731;DHT22;38624;53.242;6.974;2023-02-20T13:15:42;10.10;99.90
52731;DHT22;38624;53.242;6.974;2023-02-20T13:18:33;10.10;99.90
52731;DHT22;38624;53.242;6.974;2023-02-20T13:21:09;10.10;99.90
52731;DHT22;38624;53.242;6.974;2023-02-20T13:23:37;10.10;99.90
52731;DHT22;38624;53.242;6.974;2023-02-20T13:26:42;10.10;99.90
52731;DHT22;38624;53.242;6.974;2023-02-20T13:28:48;10.20;99.90
52731;DHT22;38624;53.242;6.974;2023-02-20T13:33:45;10.20;99.90
52731;DHT22;38624;53.242;6.974;2023-02-20T13:52:42;10.30;99.90
52731;DHT22;38624;53.242;6.974;2023-02-20T13:55:19;10.40;99.90
52731;DHT22;38624;53.242;6.974;2023-02-20T13:58:07;10.50;99.90
52731;DHT22;38624;53.242;6.974;2023-02-20T14:03:27;10.40;99.90
52731;DHT22;38624;53.242;6.974;2023-02-20T14:06:13;10.50;99.90
52731;DHT22;38624;53.242;6.974;2023-02-20T14:08:48;10.40;99.90
52731;DHT22;38624;53.242;6.974;2023-02-20T14:13:49;10.50;99.90
52731;DHT22;38624;53.242;6.974;2023-02-20T14:16:34;10.40;99.90
52731;DHT22;38624;53.242;6.974;2023-02-20T14:19:21;10.40;99.90
52731;DHT22;38624;53.242;6.974;2023-02-20T14:21:48;10.40;99.90
52731;DHT22;38624;53.242;6.974;2023-02-20T14:24:19;10.40;99.90
52731;DHT22;38624;53.242;6.974;2023-02-20T14:26:47;10.40;99.90
52731;DHT22;38624;53.242;6.974;2023-02-20T14:29:29;10.30;99.90
52731;DHT22;38624;53.242;6.974;2023-02-20T14:31:57;10.30;99.90
52731;DHT22;38624;53.242;6.974;2023-02-20T14:42:21;10.30;99.90
52731;DHT22;38624;53.242;6.974;2023-02-20T14:45:20;10.30;99.90
52731;DHT22;38624;53.242;6.974;2023-02-20T14:47:59;10.30;99.90
52731;DHT22;38624;53.242;6.974;2023-02-20T14:50:28;10.30;99.90
52731;DHT22;38624;53.242;6.974;2023-02-20T14:55:40;10.30;99.90
52731;DHT22;38624;53.242;6.974;2023-02-20T14:58:06;10.30;99.90
52731;DHT22;38624;53.242;6.974;2023-02-20T15:00:35;10.30;99.90
52731;DHT22;38624;53.242;6.974;2023-02-20T15:03:09;10.30;99.90
52731;DHT22;38624;53.242;6.974;2023-02-20T15:05:40;10.40;99.90
52731;DHT22;38624;53.242;6.974;2023-02-20T15:10:46;10.40;99.90
52731;DHT22;38624;53.242;6.974;2023-02-20T15:13:15;10.30;99.90
52731;DHT22;38624;53.242;6.974;2023-02-20T15:15:45;10.30;99.90
52731;DHT22;38624;53.242;6.974;2023-02-20T15:18:29;10.30;99.90
52731;DHT22;38624;53.242;6.974;2023-02-20T15:20:56;10.40;99.90
52731;DHT22;38624;53.242;6.974;2023-02-20T15:25:54;10.40;99.90
52731;DHT22;38624;53.242;6.974;2023-02-20T15:33:35;10.40;99.90
52731;DHT22;38624;53.242;6.974;2023-02-20T15:36:03;10.40;99.90
52731;DHT22;38624;53.242;6.974;2023-02-20T15:38:32;10.40;99.90
52731;DHT22;38624;53.242;6.974;2023-02-20T15:40:59;10.50;99.90
52731;DHT22;38624;53.242;6.974;2023-02-20T15:43:26;10.50;99.90
52731;DHT22;38624;53.242;6.974;2023-02-20T15:45:52;10.40;99.90
52731;DHT22;38624;53.242;6.974;2023-02-20T15:48:19;10.50;99.90
52731;DHT22;38624;53.242;6.974;2023-02-20T15:50:45;10.50;99.90
52731;DHT22;38624;53.242;6.974;2023-02-20T15:53:30;10.60;99.90
52731;DHT22;38624;53.242;6.974;2023-02-20T15:55:58;10.60;99.90
52731;DHT22;38624;53.242;6.974;2023-02-20T15:58:30;10.60;99.90
52731;DHT22;38624;53.242;6.974;2023-02-20T16:00:56;10.60;99.90
52731;DHT22;38624;53.242;6.974;2023-02-20T16:03:24;10.50;99.90
52731;DHT22;38624;53.242;6.974;2023-02-20T16:05:51;10.50;99.90
52731;DHT22;38624;53.242;6.974;2023-02-20T16:08:18;10.50;99.90
52731;DHT22;38624;53.242;6.974;2023-02-20T16:10:44;10.50;99.90
52731;DHT22;38624;53.242;6.974;2023-02-20T16:15:45;10.40;99.90
52731;DHT22;38624;53.242;6.974;2023-02-20T16:18:11;10.40;99.90
52731;DHT22;38624;53.242;6.974;2023-02-20T16:20:36;10.40;99.90
52731;DHT22;38624;53.242;6.974;2023-02-20T16:23:02;10.30;99.90
52731;DHT22;38624;53.242;6.974;2023-02-20T16:25:29;10.30;99.90
52731;DHT22;38624;53.242;6.974;2023-02-20T16:27:55;10.30;99.90
52731;DHT22;38624;53.242;6.974;2023-02-20T16:30:29;10.30;99.90
52731;DHT22;38624;53.242;6.974;2023-02-20T16:32:55;10.20;99.90
52731;DHT22;38624;53.242;6.974;2023-02-20T16:35:21;10.30;99.90
52731;DHT22;38624;53.242;6.974;2023-02-20T16:37:47;10.20;99.90
52731;DHT22;38624;53.242;6.974;2023-02-20T16:40:13;10.20;99.90
52731;DHT22;38624;53.242;6.974;2023-02-20T16:42:39;10.20;99.90
52731;DHT22;38624;53.242;6.974;2023-02-20T16:45:13;10.10;99.90
52731;DHT22;38624;53.242;6.974;2023-02-20T16:47:40;10.10;99.90
52731;DHT22;38624;53.242;6.974;2023-02-20T16:50:10;10.10;99.90
52731;DHT22;38624;53.242;6.974;2023-02-20T16:52:38;10.10;99.90
52731;DHT22;38624;53.242;6.974;2023-02-20T16:55:16;10.00;99.90
52731;DHT22;38624;53.242;6.974;2023-02-20T16:57:43;10.10;99.90
52731;DHT22;38624;53.242;6.974;2023-02-20T17:00:13;10.10;99.90
52731;DHT22;38624;53.242;6.974;2023-02-20T17:02:39;10.10;99.90
52731;DHT22;38624;53.242;6.974;2023-02-20T17:05:05;10.00;99.90
52731;DHT22;38624;53.242;6.974;2023-02-20T17:07:31;10.00;99.90
52731;DHT22;38624;53.242;6.974;2023-02-20T17:09:57;9.90;99.90
52731;DHT22;38624;53.242;6.974;2023-02-20T17:12:23;9.90;99.90
52731;DHT22;38624;53.242;6.974;2023-02-20T17:14:49;9.90;99.90
52731;DHT22;38624;53.242;6.974;2023-02-20T17:17:18;9.90;99.90
52731;DHT22;38624;53.242;6.974;2023-02-20T17:19:44;9.80;99.90
52731;DHT22;38624;53.242;6.974;2023-02-20T17:22:12;9.80;99.90
52731;DHT22;38624;53.242;6.974;2023-02-20T17:24:41;9.80;99.90
52731;DHT22;38624;53.242;6.974;2023-02-20T17:27:08;9.70;99.90
52731;DHT22;38624;53.242;6.974;2023-02-20T17:29:35;9.70;99.90
52731;DHT22;38624;53.242;6.974;2023-02-20T17:32:00;9.60;99.90
52731;DHT22;38624;53.242;6.974;2023-02-20T17:34:26;9.60;99.90
52731;DHT22;38624;53.242;6.974;2023-02-20T17:36:52;9.60;99.90
52731;DHT22;38624;53.242;6.974;2023-02-20T17:39:22;9.50;99.90
52731;DHT22;38624;53.242;6.974;2023-02-20T17:41:49;9.60;99.90
52731;DHT22;38624;53.242;6.974;2023-02-20T17:44:18;9.60;99.90
52731;DHT22;38624;53.242;6.974;2023-02-20T17:46:44;9.60;99.90
52731;DHT22;38624;53.242;6.974;2023-02-20T17:49:11;9.60;99.90
52731;DHT22;38624;53.242;6.974;2023-02-20T17:51:37;9.60;99.90
52731;DHT22;38624;53.242;6.974;2023-02-20T17:54:03;9.60;99.90
52731;DHT22;38624;53.242;6.974;2023-02-20T17:56:28;9.60;99.90
52731;DHT22;38624;53.242;6.974;2023-02-20T17:58:54;9.60;99.90
52731;DHT22;38624;53.242;6.974;2023-02-20T18:01:20;9.60;99.90
52731;DHT22;38624;53.242;6.974;2023-02-20T18:03:52;9.50;99.90
52731;DHT22;38624;53.242;6.974;2023-02-20T18:06:18;9.50;99.90
52731;DHT22;38624;53.242;6.974;2023-02-20T18:08:46;9.50;99.90
52731;DHT22;38624;53.242;6.974;2023-02-20T18:11:12;9.50;99.90
52731;DHT22;38624;53.242;6.974;2023-02-20T18:13:38;9.50;99.90
52731;DHT22;38624;53.242;6.974;2023-02-20T18:16:04;9.50;99.90
52731;DHT22;38624;53.242;6.974;2023-02-20T18:18:30;9.50;99.90
52731;DHT22;38624;53.242;6.974;2023-02-20T18:20:55;9.50;99.90
52731;DHT22;38624;53.242;6.974;2023-02-20T18:23:21;9.50;99.90
52731;DHT22;38624;53.242;6.974;2023-02-20T18:25:47;9.50;99.90
52731;DHT22;38624;53.242;6.974;2023-02-20T18:28:13;9.50;99.90